»·PEaware :: N21056 KLAX-KONT

N21056 :: KLAX-KONT

FLIGHT INFORMATION

Flight Status: Arrived
Operator: Privately registered:
United States
More flights under this callsign
Pilot: Erik K. (18332)
Aircraft: PILATUS PC-12 EAGLE
(PC12)
More flights by this aircraft type
Origin: KLAX Los Angeles Intl
United States
Destination: KONT Ontario Intl
United States
More flights between these airports :: More routes between these airports
Route: +SLI8 SLI V8 PDZ
File this flight plan on PilotEdge
Remarks: LAXP36
Altitude:
(Current/Filed)
5,000ft
Speed:
(Current/Filed)
230kts
Departed: 23-Feb-19 07:49 PM
Arrived: 23-Feb-19 08:27 PM
Distance/Time
Traveled:
40nm/0:38
Distance/Time
To Go:
Arrived

Flight Plot

Page will automatically refresh every two minutes.

Flight plan parsing failed; only flown route is shown


Map Options




Map Legend


Flown Route
Filed Route
Departure Airport
Arrival Airport
Navaid (VOR, NDB)
Fix

Horizontal Profiles

Position Reports

Time Latitude Longitude Heading Altitude Ground
Speed
23-Feb-19 19:32 33.934096 -118.395687 175 109ft 0kts
23-Feb-19 19:33 33.934096 -118.395687 175 109ft 0kts
23-Feb-19 19:34 33.934096 -118.395687 175 109ft 0kts
23-Feb-19 19:35 33.934096 -118.395687 175 109ft 0kts
23-Feb-19 19:36 33.934096 -118.395687 175 109ft 0kts
23-Feb-19 19:38 33.934105 -118.394569 78 108ft 13kts
23-Feb-19 19:39 33.935197 -118.391891 83 105ft 19kts
23-Feb-19 19:40 33.935909 -118.384829 82 101ft 22kts
23-Feb-19 19:41 33.936165 -118.382795 8 100ft 0kts
23-Feb-19 19:42 33.936165 -118.382795 8 100ft 0kts
23-Feb-19 19:43 33.936165 -118.382795 8 100ft 0kts
23-Feb-19 19:44 33.936165 -118.382795 8 100ft 0kts
23-Feb-19 19:45 33.936165 -118.382795 8 100ft 0kts
23-Feb-19 19:46 33.936165 -118.382795 8 100ft 0kts
23-Feb-19 19:47 33.936165 -118.382795 8 100ft 0kts
23-Feb-19 19:48 33.937180 -118.384115 265 100ft 35kts
23-Feb-19 19:49 33.931526 -118.425247 262 1419ft 173kts
23-Feb-19 19:50 33.903706 -118.474441 211 2943ft 203kts
23-Feb-19 19:51 33.853376 -118.515807 215 2158ft 222kts
23-Feb-19 19:52 33.810885 -118.538589 177 3201ft 155kts
23-Feb-19 19:53 33.777018 -118.493561 123 4177ft 228kts
23-Feb-19 19:54 33.740434 -118.427593 122 4569ft 240kts
23-Feb-19 19:55 33.703797 -118.359624 122 4569ft 238kts
23-Feb-19 19:55 33.674569 -118.305668 122 4568ft 223kts
23-Feb-19 19:57 33.671296 -118.237632 29 4577ft 202kts
23-Feb-19 19:58 33.709972 -118.188109 51 4572ft 200kts
23-Feb-19 19:58 33.735807 -118.142382 53 4575ft 196kts
23-Feb-19 19:59 33.765850 -118.087228 54 4577ft 197kts
23-Feb-19 20:00 33.790309 -118.027909 69 4605ft 198kts
23-Feb-19 20:02 33.809586 -117.954717 74 4605ft 192kts
23-Feb-19 20:02 33.822615 -117.903408 74 4606ft 189kts
23-Feb-19 20:03 33.838378 -117.842233 75 4606ft 190kts
23-Feb-19 20:04 33.853811 -117.782086 73 4607ft 182kts
23-Feb-19 20:05 33.868933 -117.723233 69 4609ft 183kts
23-Feb-19 20:06 33.890579 -117.667805 58 4612ft 183kts
23-Feb-19 20:07 33.898536 -117.605688 79 4614ft 188kts
23-Feb-19 20:08 33.910821 -117.544063 54 4615ft 186kts
23-Feb-19 20:09 33.945747 -117.563089 298 4477ft 182kts
23-Feb-19 20:10 33.970879 -117.621504 298 3689ft 202kts
23-Feb-19 20:11 33.995773 -117.679294 298 3622ft 185kts
23-Feb-19 20:12 34.017704 -117.729528 299 3633ft 144kts
23-Feb-19 20:13 34.036432 -117.768751 300 3660ft 138kts
23-Feb-19 20:14 34.054585 -117.814159 271 3684ft 159kts
23-Feb-19 20:15 34.054385 -117.867846 269 3681ft 151kts
23-Feb-19 20:16 34.035611 -117.900424 155 3669ft 152kts
23-Feb-19 20:17 34.040790 -117.859760 45 3672ft 144kts
23-Feb-19 20:18 34.056645 -117.817126 88 3687ft 147kts
23-Feb-19 20:19 34.056709 -117.765060 88 3301ft 170kts
23-Feb-19 20:20 34.056796 -117.709699 88 2411ft 134kts
23-Feb-19 20:21 34.056859 -117.672360 89 1824ft 110kts
23-Feb-19 20:22 34.046214 -117.633538 124 1864ft 111kts
23-Feb-19 20:23 34.033089 -117.600751 93 1956ft 109kts
23-Feb-19 20:24 34.033061 -117.566081 49 1930ft 105kts
23-Feb-19 20:25 34.054571 -117.572680 278 1066ft 107kts
23-Feb-19 20:26 34.054033 -117.594488 238 915ft 4kts
23-Feb-19 20:27 34.054004 -117.594544 236 915ft 0kts
23-Feb-19 20:28 34.053855 -117.601686 268 915ft 21kts
23-Feb-19 20:29 34.053858 -117.608340 267 921ft 21kts
23-Feb-19 20:30 34.053147 -117.610039 271 919ft 0kts
23-Feb-19 20:31 34.053147 -117.610039 271 919ft 0kts

Navigation Log

Ident Type
Flight plan parsing failed, navigation log unavailable